createdAt,value
2023-04-02T00:02:21.563Z,52.60
2023-04-02T00:05:07.860Z,59.10
2023-04-02T00:07:34.168Z,35.87
2023-04-02T00:10:00.528Z,53.47
2023-04-02T00:12:26.841Z,115.37
2023-04-02T00:14:54.371Z,67.00
2023-04-02T00:17:23.032Z,32.43
2023-04-02T00:19:54.481Z,52.70
2023-04-02T00:22:22.552Z,29.27
2023-04-02T00:24:53.770Z,34.97
2023-04-02T00:27:20.831Z,71.10
2023-04-02T00:29:48.353Z,35.47
2023-04-02T00:32:20.655Z,47.27
2023-04-02T00:34:46.990Z,28.63
2023-04-02T00:37:18.304Z,38.60
2023-04-02T00:39:44.681Z,27.37
2023-04-02T00:42:12.445Z,25.50
2023-04-02T00:44:43.150Z,32.80
2023-04-02T00:47:20.128Z,27.57
2023-04-02T00:49:46.472Z,139.50
2023-04-02T00:52:16.975Z,45.83
2023-04-02T00:54:45.766Z,45.60
2023-04-02T00:57:14.850Z,26.90
2023-04-02T00:59:51.012Z,51.90
2023-04-02T01:02:18.445Z,49.20
2023-04-02T01:04:55.408Z,66.00
2023-04-02T01:07:40.454Z,54.40
2023-04-02T01:10:32.930Z,34.80
2023-04-02T01:13:02.024Z,43.03
2023-04-02T01:15:37.060Z,69.40
2023-04-02T01:20:29.980Z,37.30
2023-04-02T01:22:56.315Z,31.90
2023-04-02T01:25:26.615Z,48.37
2023-04-02T01:28:19.530Z,30.80
2023-04-02T01:31:06.266Z,78.93
2023-04-02T01:33:33.662Z,84.80
2023-04-02T01:36:11.157Z,69.17
2023-04-02T01:38:41.661Z,40.07
2023-04-02T01:41:10.986Z,68.23
2023-04-02T01:43:42.099Z,43.37
2023-04-02T01:46:27.173Z,52.70
2023-04-02T01:48:54.293Z,34.75
2023-04-02T01:51:28.823Z,38.00
2023-04-02T01:53:56.250Z,36.55
2023-04-02T01:56:22.953Z,37.33
2023-04-02T01:58:49.527Z,34.63
2023-04-02T02:01:18.500Z,36.73
2023-04-02T02:03:45.532Z,37.27
2023-04-02T02:06:13.265Z,56.53
2023-04-02T02:08:58.523Z,64.43
2023-04-02T02:11:27.103Z,30.45
2023-04-02T02:13:55.519Z,57.40
2023-04-02T02:16:21.971Z,48.70
2023-04-02T02:18:52.556Z,33.30
2023-04-02T02:21:30.101Z,31.27
2023-04-02T02:23:57.052Z,80.83
2023-04-02T02:26:24.212Z,49.07
2023-04-02T02:28:51.399Z,33.40
2023-04-02T02:31:19.822Z,42.97
2023-04-02T02:33:48.990Z,120.23
2023-04-02T02:36:15.601Z,37.93
2023-04-02T02:38:45.496Z,48.47
2023-04-02T02:41:16.033Z,34.27
2023-04-02T02:43:45.553Z,33.37
2023-04-02T02:46:16.919Z,63.13
2023-04-02T02:48:43.804Z,38.97
2023-04-02T02:51:17.826Z,99.70
2023-04-02T02:53:46.613Z,59.40
2023-04-02T02:56:13.445Z,55.60
2023-04-02T02:58:39.838Z,34.63
2023-04-02T03:01:06.290Z,32.47
2023-04-02T03:03:34.435Z,39.20
2023-04-02T03:06:03.211Z,32.70
2023-04-02T03:08:34.494Z,42.47
2023-04-02T03:11:05.301Z,70.83
2023-04-02T03:13:33.169Z,97.57
2023-04-02T03:16:02.553Z,45.90
2023-04-02T03:18:35.328Z,42.57
2023-04-02T03:21:15.502Z,37.30
2023-04-02T03:23:51.231Z,43.60
2023-04-02T03:26:28.073Z,32.20
2023-04-02T03:29:00.853Z,37.97
2023-04-02T03:31:31.317Z,26.57
2023-04-02T03:34:19.095Z,47.17
2023-04-02T03:36:56.715Z,32.10
2023-04-02T03:39:27.186Z,53.23
2023-04-02T03:42:09.196Z,58.50
2023-04-02T03:44:38.170Z,41.20
2023-04-02T03:47:10.679Z,51.03
2023-04-02T03:49:41.132Z,64.07
2023-04-02T03:52:33.548Z,29.67
2023-04-02T03:55:01.208Z,40.30
2023-04-02T03:57:33.718Z,116.90
2023-04-02T04:00:07.216Z,33.63
2023-04-02T04:02:38.917Z,77.47
2023-04-02T04:05:06.759Z,101.30
2023-04-02T04:07:35.514Z,96.43
2023-04-02T04:10:02.711Z,93.50
2023-04-02T04:12:55.346Z,70.93
2023-04-02T04:15:27.271Z,48.80
2023-04-02T04:18:02.315Z,97.47
2023-04-02T04:20:28.885Z,90.00
2023-04-02T04:22:56.128Z,45.17
2023-04-02T04:25:29.715Z,29.27
2023-04-02T04:28:05.610Z,68.17
2023-04-02T04:30:36.515Z,86.47
2023-04-02T04:33:05.688Z,21.37
2023-04-02T04:35:37.852Z,27.77
2023-04-02T04:38:07.590Z,40.43
2023-04-02T04:40:36.166Z,53.77
2023-04-02T04:43:05.519Z,43.90
2023-04-02T04:45:31.881Z,70.40
2023-04-02T04:48:01.285Z,30.77
2023-04-02T04:50:32.843Z,31.00
2023-04-02T04:53:05.464Z,25.07
2023-04-02T04:55:39.612Z,23.60
2023-04-02T04:58:16.832Z,98.27
2023-04-02T05:00:58.181Z,19.43
2023-04-02T05:03:39.712Z,23.40
2023-04-02T05:06:09.384Z,62.00
2023-04-02T05:08:38.901Z,55.57
2023-04-02T05:11:14.677Z,42.97
2023-04-02T05:13:53.473Z,20.00
2023-04-02T05:16:27.120Z,55.77
2023-04-02T05:18:56.529Z,24.47
2023-04-02T05:21:23.948Z,32.63
2023-04-02T05:23:55.989Z,43.33
2023-04-02T05:26:25.740Z,24.90
2023-04-02T05:28:52.092Z,36.77
2023-04-02T05:31:20.037Z,38.33
2023-04-02T05:33:47.730Z,28.70
2023-04-02T05:36:22.236Z,30.77
2023-04-02T05:38:49.568Z,62.95
2023-04-02T05:41:36.899Z,36.63
2023-04-02T05:44:06.033Z,55.77
2023-04-02T05:46:37.029Z,27.40
2023-04-02T05:49:05.035Z,56.83
2023-04-02T05:51:51.598Z,29.17
2023-04-02T05:54:28.477Z,29.33
2023-04-02T05:56:57.878Z,27.23
2023-04-02T05:59:32.736Z,70.43
2023-04-02T06:02:00.468Z,49.22
2023-04-02T06:04:36.248Z,70.20
2023-04-02T06:07:09.992Z,53.20
2023-04-02T06:09:45.413Z,47.97
2023-04-02T06:12:17.668Z,30.90
2023-04-02T06:14:44.582Z,40.57
2023-04-02T06:17:14.259Z,49.50
2023-04-02T06:19:40.812Z,28.73
2023-04-02T06:22:20.558Z,26.00
2023-04-02T06:24:49.290Z,24.40
2023-04-02T06:27:19.961Z,28.67
2023-04-02T06:29:48.429Z,36.90
2023-04-02T06:32:14.731Z,20.43
2023-04-02T06:34:41.958Z,41.57
2023-04-02T06:37:14.311Z,25.33
2023-04-02T06:39:40.634Z,28.23
2023-04-02T06:42:07.530Z,36.83
2023-04-02T06:44:37.370Z,24.03
2023-04-02T06:47:03.715Z,24.53
2023-04-02T06:49:36.316Z,34.30
2023-04-02T06:52:04.301Z,12.90
2023-04-02T06:54:31.277Z,24.23
2023-04-02T06:56:57.715Z,17.43
2023-04-02T06:59:24.238Z,32.30
2023-04-02T07:01:52.238Z,64.47
2023-04-02T07:04:19.699Z,27.87
2023-04-02T07:06:46.620Z,21.93
2023-04-02T07:09:13.097Z,23.57
2023-04-02T07:11:39.593Z,21.63
2023-04-02T07:14:06.246Z,60.93
2023-04-02T07:16:33.557Z,21.10
2023-04-02T07:18:59.943Z,38.97
2023-04-02T07:21:26.817Z,73.43
2023-04-02T07:23:53.939Z,22.37
2023-04-02T07:26:22.821Z,16.87
2023-04-02T07:28:49.841Z,26.13
2023-04-02T07:31:26.330Z,36.93
2023-04-02T07:33:53.901Z,37.67
2023-04-02T07:36:22.087Z,36.57
2023-04-02T07:38:48.680Z,140.80
2023-04-02T07:41:15.037Z,37.57
2023-04-02T07:43:41.904Z,73.40
2023-04-02T07:46:09.412Z,26.87
2023-04-02T07:48:35.812Z,57.00
2023-04-02T07:51:03.346Z,20.17
2023-04-02T07:53:33.747Z,20.83
2023-04-02T07:56:01.510Z,23.53
2023-04-02T07:58:28.231Z,11.73
2023-04-02T08:00:54.616Z,42.23
2023-04-02T08:03:21.814Z,33.03
2023-04-02T08:05:55.441Z,25.67
2023-04-02T08:08:22.604Z,4.97
2023-04-02T08:10:49.319Z,9.40
2023-04-02T08:13:16.179Z,61.90
2023-04-02T08:15:42.985Z,39.83
2023-04-02T08:18:10.003Z,32.53
2023-04-02T08:20:36.605Z,103.50
2023-04-02T08:23:03.266Z,40.67
2023-04-02T08:25:29.579Z,100.97
2023-04-02T08:27:56.251Z,40.90
2023-04-02T08:30:22.621Z,57.77
2023-04-02T08:32:48.952Z,23.20
2023-04-02T08:35:16.385Z,35.27
2023-04-02T08:37:43.122Z,25.00
2023-04-02T08:40:18.460Z,42.40
2023-04-02T08:42:50.110Z,28.90
2023-04-02T08:45:25.365Z,35.17
2023-04-02T08:47:55.289Z,2.63
2023-04-02T08:50:22.024Z,16.87
2023-04-02T08:52:48.496Z,23.70
2023-04-02T08:55:35.340Z,15.20
2023-04-02T08:58:06.446Z,15.87
2023-04-02T09:00:37.812Z,14.67
2023-04-02T09:03:15.508Z,35.17
2023-04-02T09:05:42.998Z,18.03
2023-04-02T09:08:16.042Z,22.07
2023-04-02T09:10:54.798Z,54.00
2023-04-02T09:13:23.765Z,16.80
2023-04-02T09:15:52.635Z,20.47
2023-04-02T09:18:19.918Z,24.13
2023-04-02T09:20:48.141Z,44.87
2023-04-02T09:23:22.310Z,21.13
2023-04-02T09:26:02.967Z,22.13
2023-04-02T09:28:30.241Z,19.53
2023-04-02T09:31:00.142Z,39.00
2023-04-02T09:33:46.092Z,19.07
2023-04-02T09:36:18.358Z,24.40
2023-04-02T09:39:06.548Z,26.67
2023-04-02T09:41:36.680Z,31.23
2023-04-02T09:44:21.163Z,12.83
2023-04-02T09:46:54.903Z,23.97
2023-04-02T09:49:23.065Z,29.87
2023-04-02T09:52:28.020Z,27.07
2023-04-02T09:55:12.964Z,28.53
2023-04-02T09:57:39.272Z,25.80
2023-04-02T10:00:25.252Z,15.13
2023-04-02T10:03:05.600Z,19.97
2023-04-02T10:05:40.485Z,16.50
2023-04-02T10:08:09.119Z,19.90
2023-04-02T10:10:41.005Z,28.30
2023-04-02T10:13:27.568Z,47.07
2023-04-02T10:16:12.285Z,51.47
2023-04-02T10:18:48.043Z,20.85
2023-04-02T10:21:18.641Z,15.17
2023-04-02T10:23:45.351Z,75.63
2023-04-02T10:26:11.679Z,86.37
2023-04-02T10:28:42.416Z,77.23
2023-04-02T10:31:17.379Z,89.40
2023-04-02T10:33:47.370Z,65.80
2023-04-02T10:36:49.064Z,109.70
2023-04-02T10:39:19.997Z,46.10
2023-04-02T10:41:46.751Z,57.13
2023-04-02T10:44:20.707Z,77.13
2023-04-02T10:47:00.702Z,50.77
2023-04-02T10:49:40.983Z,58.73
2023-04-02T10:52:10.826Z,50.00
2023-04-02T10:54:43.180Z,87.07
2023-04-02T10:57:21.788Z,77.47
2023-04-02T11:00:09.061Z,95.03
2023-04-02T11:02:41.794Z,130.00
2023-04-02T11:05:23.824Z,93.47
2023-04-02T11:07:53.269Z,61.57
2023-04-02T11:10:20.326Z,71.70
2023-04-02T11:12:50.576Z,76.77
2023-04-02T11:15:17.996Z,79.67
2023-04-02T11:17:44.911Z,157.30
2023-04-02T11:20:30.277Z,137.53
2023-04-02T11:23:09.924Z,81.03
2023-04-02T11:25:36.748Z,84.80
2023-04-02T11:28:41.783Z,84.30
2023-04-02T11:31:08.128Z,76.03
2023-04-02T11:33:39.111Z,92.17
2023-04-02T11:36:26.621Z,58.27
2023-04-02T11:38:54.907Z,90.63
2023-04-02T11:41:41.285Z,93.70
2023-04-02T11:44:21.512Z,108.85
2023-04-02T11:46:47.990Z,85.33
2023-04-02T11:49:34.387Z,83.43
2023-04-02T11:52:11.521Z,117.07
2023-04-02T11:54:39.229Z,80.70
2023-04-02T11:57:44.245Z,65.00
2023-04-02T12:00:29.311Z,66.43
2023-04-02T12:03:04.554Z,73.05
2023-04-02T12:08:05.159Z,53.13
2023-04-02T12:10:51.313Z,71.10
2023-04-02T12:13:36.466Z,108.00
2023-04-02T12:16:02.921Z,52.40
2023-04-02T12:18:29.289Z,47.47
2023-04-02T12:20:56.366Z,54.73
2023-04-02T12:23:25.718Z,59.17
2023-04-02T12:25:59.225Z,60.83
2023-04-02T12:28:29.163Z,73.57
2023-04-02T12:31:11.560Z,58.97
2023-04-02T12:33:38.712Z,67.20
2023-04-02T12:36:25.551Z,50.67
2023-04-02T12:38:56.552Z,59.23
2023-04-02T12:41:29.943Z,70.03
2023-04-02T12:43:57.457Z,94.23
2023-04-02T12:46:25.944Z,93.50
2023-04-02T12:48:53.910Z,68.33
2023-04-02T12:51:20.633Z,82.33
2023-04-02T12:53:51.737Z,52.47
2023-04-02T12:56:19.194Z,81.23
2023-04-02T12:58:51.862Z,77.70
2023-04-02T13:01:23.691Z,63.00
2023-04-02T13:04:12.163Z,59.37
2023-04-02T13:06:39.553Z,51.63
2023-04-02T13:09:07.558Z,41.80
2023-04-02T13:11:38.116Z,47.63
2023-04-02T13:14:06.163Z,63.13
2023-04-02T13:16:34.097Z,53.53
2023-04-02T13:19:11.888Z,41.70
2023-04-02T13:21:38.576Z,56.10
2023-04-02T13:24:05.120Z,39.13
2023-04-02T13:26:31.447Z,42.85
2023-04-02T13:29:00.722Z,45.27
2023-04-02T13:31:27.813Z,49.50
2023-04-02T13:33:54.245Z,61.97
2023-04-02T13:36:20.655Z,50.47
2023-04-02T13:38:47.063Z,49.88
2023-04-02T13:41:33.620Z,32.97
2023-04-02T13:44:01.232Z,45.53
2023-04-02T13:46:29.151Z,30.73
2023-04-02T13:48:55.861Z,31.73
2023-04-02T13:51:31.783Z,25.10
2023-04-02T13:53:58.188Z,37.23
2023-04-02T13:56:24.795Z,42.40
2023-04-02T13:58:51.555Z,26.53
2023-04-02T14:01:19.449Z,25.58
2023-04-02T14:03:46.116Z,39.95
2023-04-02T14:06:28.923Z,13.52
2023-04-02T14:08:55.830Z,15.98
2023-04-02T14:11:41.306Z,33.50
2023-04-02T14:14:22.949Z,28.23
2023-04-02T14:17:07.991Z,27.00
2023-04-02T14:19:54.654Z,20.60
2023-04-02T14:22:44.273Z,11.27
2023-04-02T14:25:13.633Z,17.45
2023-04-02T14:27:40.385Z,29.30
2023-04-02T14:30:06.891Z,25.03
2023-04-02T14:32:48.983Z,14.93
2023-04-02T14:35:24.620Z,23.08
2023-04-02T14:38:03.778Z,13.38
2023-04-02T14:40:46.188Z,10.02
2023-04-02T14:43:17.278Z,8.18
2023-04-02T14:46:00.129Z,15.73
2023-04-02T14:48:37.562Z,16.45
2023-04-02T14:51:07.536Z,8.77
2023-04-02T14:53:44.389Z,15.00
2023-04-02T14:56:12.648Z,12.43
2023-04-02T14:58:42.340Z,13.82
2023-04-02T15:01:13.977Z,14.52
2023-04-02T15:03:48.408Z,12.07
2023-04-02T15:06:19.393Z,14.90
2023-04-02T15:08:58.613Z,6.47
2023-04-02T15:11:41.580Z,6.28
2023-04-02T15:14:07.952Z,6.63
2023-04-02T15:16:36.420Z,8.85
2023-04-02T15:19:03.965Z,8.60
2023-04-02T15:21:30.349Z,4.15
2023-04-02T15:24:17.035Z,9.40
2023-04-02T15:26:55.886Z,16.27
2023-04-02T15:29:28.744Z,5.63
2023-04-02T15:32:00.868Z,6.25
2023-04-02T15:34:38.394Z,5.97
2023-04-02T15:37:12.613Z,5.45
2023-04-02T15:39:51.361Z,5.50
2023-04-02T15:42:19.928Z,7.07
2023-04-02T15:45:09.553Z,8.43
2023-04-02T15:47:36.816Z,4.80
2023-04-02T15:50:15.144Z,26.80
2023-04-02T15:53:04.466Z,28.05
2023-04-02T15:55:44.114Z,30.08
2023-04-02T15:58:29.038Z,28.20
2023-04-02T16:01:08.448Z,28.88
2023-04-02T16:03:53.863Z,17.92
2023-04-02T16:06:25.502Z,19.98
2023-04-02T16:09:10.579Z,16.65
2023-04-02T16:11:36.903Z,10.32
2023-04-02T16:14:12.141Z,13.98
2023-04-02T16:19:16.560Z,5.50
2023-04-02T16:21:49.032Z,4.82
2023-04-02T16:24:15.345Z,9.75
2023-04-02T16:26:41.633Z,13.18
2023-04-02T16:29:23.008Z,9.38
2023-04-02T16:32:15.696Z,6.82
2023-04-02T16:34:41.980Z,4.35
2023-04-02T16:37:16.479Z,6.43
2023-04-02T16:39:48.705Z,4.97
2023-04-02T16:42:20.986Z,4.80
2023-04-02T16:44:50.350Z,4.82
2023-04-02T16:47:22.387Z,4.32
2023-04-02T16:50:07.983Z,5.60
2023-04-02T16:55:23.291Z,5.07
2023-04-02T16:58:08.597Z,4.77
2023-04-02T17:00:37.924Z,6.38
2023-04-02T17:03:23.092Z,6.05
2023-04-02T17:06:01.603Z,5.10
2023-04-02T17:08:32.121Z,5.03
2023-04-02T17:11:02.476Z,5.43
2023-04-02T17:13:37.402Z,6.47
2023-04-02T17:16:13.181Z,5.53
2023-04-02T17:18:41.665Z,21.05
2023-04-02T17:21:11.050Z,14.57
2023-04-02T17:23:56.012Z,6.38
2023-04-02T17:26:24.751Z,11.65
2023-04-02T17:28:51.321Z,6.47
2023-04-02T17:31:17.673Z,7.18
2023-04-02T17:33:44.017Z,5.67
2023-04-02T17:36:13.590Z,7.70
2023-04-02T17:38:42.670Z,6.30
2023-04-02T17:41:44.481Z,8.20
2023-04-02T17:44:22.437Z,7.10
2023-04-02T17:47:07.637Z,7.20
2023-04-02T17:49:54.184Z,6.20
2023-04-02T17:52:27.098Z,8.35
2023-04-02T17:55:12.349Z,7.37
2023-04-02T17:57:50.708Z,7.03
2023-04-02T18:00:22.399Z,8.27
2023-04-02T18:03:01.026Z,7.97
2023-04-02T18:05:32.802Z,7.13
2023-04-02T18:08:01.945Z,7.72
2023-04-02T18:10:48.502Z,8.95
2023-04-02T18:13:28.264Z,6.97
2023-04-02T18:16:06.766Z,6.63
2023-04-02T18:18:42.393Z,7.70
2023-04-02T18:21:08.776Z,7.23
2023-04-02T18:23:44.152Z,6.63
2023-04-02T18:26:29.254Z,7.30
2023-04-02T18:29:07.720Z,8.80
2023-04-02T18:31:40.473Z,6.93
2023-04-02T18:34:11.144Z,9.20
2023-04-02T18:36:46.800Z,7.03
2023-04-02T18:39:13.096Z,6.90
2023-04-02T18:41:39.394Z,6.80
2023-04-02T18:44:14.864Z,7.80
2023-04-02T18:46:48.901Z,6.57
2023-04-02T18:49:15.524Z,6.57
2023-04-02T18:51:41.966Z,7.57
2023-04-02T18:54:18.355Z,8.20
2023-04-02T18:56:44.867Z,8.90
2023-04-02T18:59:33.432Z,8.50
2023-04-02T19:02:03.135Z,8.30
2023-04-02T19:04:32.782Z,8.97
2023-04-02T19:07:11.685Z,8.10
2023-04-02T19:09:43.477Z,7.43
2023-04-02T19:12:18.952Z,8.40
2023-04-02T19:14:46.493Z,9.43
2023-04-02T19:17:42.474Z,9.70
2023-04-02T19:22:53.991Z,7.27
2023-04-02T19:25:38.806Z,8.63
2023-04-02T19:28:12.725Z,10.80
2023-04-02T19:30:42.944Z,9.73
2023-04-02T19:33:18.391Z,10.47
2023-04-02T19:35:53.861Z,10.40
2023-04-02T19:38:26.661Z,9.67
2023-04-02T19:40:59.156Z,10.60
2023-04-02T19:43:25.514Z,9.17
2023-04-02T19:45:53.995Z,9.23
2023-04-02T19:48:21.683Z,9.97
2023-04-02T19:50:48.879Z,9.87
2023-04-02T19:53:15.689Z,8.20
2023-04-02T19:55:42.320Z,10.00
2023-04-02T19:58:28.078Z,9.77
2023-04-02T20:00:54.696Z,9.73
2023-04-02T20:03:21.076Z,9.27
2023-04-02T20:05:47.540Z,8.60
2023-04-02T20:08:14.010Z,8.27
2023-04-02T20:10:40.674Z,9.27
2023-04-02T20:13:07.445Z,9.80
2023-04-02T20:15:34.325Z,10.47
2023-04-02T20:18:01.099Z,9.50
2023-04-02T20:20:27.462Z,9.13
2023-04-02T20:22:53.761Z,10.73
2023-04-02T20:25:20.171Z,9.53
2023-04-02T20:27:46.608Z,10.90
2023-04-02T20:30:13.030Z,9.37
2023-04-02T20:32:40.422Z,8.13
2023-04-02T20:35:06.997Z,8.03
2023-04-02T20:37:33.331Z,10.00
2023-04-02T20:39:59.670Z,9.37
2023-04-02T20:42:26.530Z,10.27
2023-04-02T20:44:52.825Z,10.30
2023-04-02T20:47:19.468Z,9.77
2023-04-02T20:49:45.865Z,10.10
2023-04-02T20:52:12.370Z,10.40
2023-04-02T20:54:38.786Z,9.53
2023-04-02T20:57:05.105Z,8.73
2023-04-02T20:59:31.645Z,7.87
2023-04-02T21:01:58.070Z,9.30
2023-04-02T21:04:24.571Z,8.87
2023-04-02T21:06:56.731Z,9.23
2023-04-02T21:09:23.109Z,9.90
2023-04-02T21:11:49.941Z,9.23
2023-04-02T21:14:16.700Z,12.27
2023-04-02T21:16:43.073Z,10.63
2023-04-02T21:19:09.558Z,11.47
2023-04-02T21:21:36.858Z,9.77
2023-04-02T21:24:04.745Z,11.77
2023-04-02T21:26:33.426Z,10.17
2023-04-02T21:29:01.283Z,12.13
2023-04-02T21:31:29.057Z,11.60
2023-04-02T21:33:56.221Z,10.23
2023-04-02T21:36:24.021Z,8.83
2023-04-02T21:38:51.678Z,11.70
2023-04-02T21:41:27.956Z,10.90
2023-04-02T21:43:54.991Z,10.63
2023-04-02T21:46:23.399Z,12.60
2023-04-02T21:48:50.263Z,8.73
2023-04-02T21:51:21.777Z,11.73
2023-04-02T21:53:48.418Z,9.40
2023-04-02T21:56:16.648Z,9.43
2023-04-02T21:58:45.853Z,10.13
2023-04-02T22:01:23.912Z,9.93
2023-04-02T22:03:53.139Z,9.03
2023-04-02T22:06:20.802Z,9.73
2023-04-02T22:08:48.009Z,10.97
2023-04-02T22:11:16.364Z,10.67
2023-04-02T22:13:43.928Z,8.87
2023-04-02T22:16:12.158Z,9.67
2023-04-02T22:18:38.788Z,8.37
2023-04-02T22:21:05.369Z,9.80
2023-04-02T22:23:33.154Z,9.33
2023-04-02T22:25:59.884Z,8.50
2023-04-02T22:28:26.859Z,8.67
2023-04-02T22:30:53.733Z,7.73
2023-04-02T22:33:20.085Z,8.77
2023-04-02T22:35:50.586Z,10.10
2023-04-02T22:38:17.234Z,16.93
2023-04-02T22:40:43.573Z,12.20
2023-04-02T22:43:09.863Z,9.30
2023-04-02T22:45:36.176Z,10.30
2023-04-02T22:48:02.578Z,8.73
2023-04-02T22:50:28.962Z,9.13
2023-04-02T22:52:55.874Z,8.47
2023-04-02T22:55:22.381Z,8.83
2023-04-02T22:57:48.719Z,10.37
2023-04-02T23:00:16.037Z,10.77
2023-04-02T23:02:42.372Z,11.60
2023-04-02T23:05:08.998Z,14.00
2023-04-02T23:07:35.425Z,9.70
2023-04-02T23:10:03.833Z,8.80
2023-04-02T23:12:30.964Z,21.43
2023-04-02T23:14:58.009Z,11.47
2023-04-02T23:17:24.316Z,11.87
2023-04-02T23:19:50.743Z,10.37
2023-04-02T23:22:17.034Z,9.50
2023-04-02T23:24:43.333Z,10.07
2023-04-02T23:27:09.630Z,8.10
2023-04-02T23:29:35.921Z,8.43
2023-04-02T23:32:02.302Z,9.13
2023-04-02T23:34:28.593Z,8.43
2023-04-02T23:36:54.900Z,10.27
2023-04-02T23:39:22.963Z,10.37
2023-04-02T23:41:49.261Z,9.23
2023-04-02T23:44:15.880Z,9.70
2023-04-02T23:46:42.232Z,7.83
2023-04-02T23:49:10.077Z,15.63
2023-04-02T23:51:36.399Z,8.83
2023-04-02T23:54:02.696Z,11.57
2023-04-02T23:56:29.060Z,12.17
2023-04-02T23:58:55.385Z,13.00
